Time;durP1;ratioP1;P1;durP2;ratioP2;P2;SDS_P1;SDS_P2;PMS_P1;PMS_P2;Temp;Humidity;BMP_temperature;BMP_pressure;BME280_temperature;BME280_humidity;BME280_pressure;Samples;Min_cycle;Max_cycle;Signal;HPM_P1;HPM_P2
2023/11/02 00:01:47;;;;;;;;;;;;;;;;;;6279796;28;19966;-84
2023/11/02 00:04:47;;;;;;;;;;;;;;;;;;6277816;28;20396;-84
2023/11/02 00:07:47;;;;;;;;;;;;;;;;;;6282995;28;19917;-84
2023/11/02 00:10:47;;;;;;;;;;;;;;;;;;6281385;28;19923;-87
2023/11/02 00:13:50;;;;;;;;;;;;;;;;;;6296366;28;19935;-85
2023/11/02 00:16:50;;;;;;;;;;;;;;;;;;6284193;28;19913;-85
2023/11/02 00:19:50;;;;;;;;;;;;;;;;;;6279992;28;19924;-85
2023/11/02 00:22:50;;;;;;;;;;;;;;;;;;6279817;28;19928;-86
2023/11/02 00:25:51;;;;;;;;;;;;;;;;;;6274775;28;19936;-85
2023/11/02 00:28:51;;;;;;;;;;;;;;;;;;6311262;28;19942;-85
2023/11/02 00:31:52;;;;;;;;;;;;;;;;;;6316816;28;19912;-85
2023/11/02 00:34:52;;;;;;;;;;;;;;;;;;6312882;28;19913;-85
2023/11/02 00:37:52;;;;;;;;;;;;;;;;;;6315246;28;19987;-85
2023/11/02 00:40:52;;;;;;;;;;;;;;;;;;5955290;28;9999638;-85
2023/11/02 00:43:53;;;;;;;;;;;;;;;;;;6279876;28;19909;-84
2023/11/02 00:46:53;;;;;;;;;;;;;;;;;;6290369;28;20369;-85
2023/11/02 00:49:53;;;;;;;;;;;;;;;;;;6278654;28;19923;-84
2023/11/02 00:52:54;;;;;;;;;;;;;;;;;;6293954;28;19919;-84
2023/11/02 00:55:54;;;;;;;;;;;;;;;;;;6287987;28;19916;-84
2023/11/02 00:58:54;;;;;;;;;;;;;;;;;;6298228;28;20260;-88
2023/11/02 01:01:55;;;;;;;;;;;;;;;;;;6293513;28;20356;-87
2023/11/02 01:04:55;;;;;;;;;;;;;;;;;;6300538;28;19912;-88
2023/11/02 01:07:56;;;;;;;;;;;;;;;;;;6295375;28;19912;-89
2023/11/02 01:10:56;;;;;;;;;;;;;;;;;;6288791;28;19923;-88
2023/11/02 01:13:57;;;;;;;;;;;;;;;;;;6300936;28;19916;-88
2023/11/02 01:16:57;;;;;;;;;;;;;;;;;;6299805;28;20335;-88
2023/11/02 01:19:57;;;;;;;;;;;;;;;;;;6299960;28;19958;-88
2023/11/02 01:22:57;;;;;;;;;;;;;;;;;;6279376;28;19920;-89
2023/11/02 01:25:57;;;;;;;;;;;;;;;;;;6319786;28;19920;-88
2023/11/02 01:28:58;;;;;;;;;;;;;;;;;;6298150;28;19920;-88
2023/11/02 01:32:00;;;;;;;;;;;;;;;;;;6299135;28;19921;-88
2023/11/02 01:35:00;;;;;;;;;;;;;;;;;;6298247;28;20288;-89
2023/11/02 01:38:01;;;;;;;;;;;;;;;;;;6296545;28;19909;-88
2023/11/02 01:41:03;;;;;;;;;;;;;;;;;;6274642;28;19909;-88
2023/11/02 01:44:03;;;;;;;;;;;;;;;;;;6281612;28;19919;-88
2023/11/02 01:47:04;;;;;;;;;;;;;;;;;;6299000;28;20325;-88
2023/11/02 01:50:04;;;;;;;;;;;;;;;;;;6315014;28;19912;-88
2023/11/02 01:53:05;;;;;;;;;;;;;;;;;;6292977;28;19913;-89
2023/11/02 01:56:07;;;;;;;;;;;;;;;;;;6280563;28;19909;-87
2023/11/02 01:59:07;;;;;;;;;;;;;;;;;;6314478;28;19924;-88
2023/11/02 02:02:07;;;;;;;;;;;;;;;;;;6294873;28;19920;-88
2023/11/02 02:05:08;;;;;;;;;;;;;;;;;;6290277;28;19944;-87
2023/11/02 02:08:08;;;;;;;;;;;;;;;;;;6283925;28;20396;-86
2023/11/02 02:11:08;;;;;;;;;;;;;;;;;;6276882;28;19913;-84
2023/11/02 02:14:09;;;;;;;;;;;;;;;;;;6287011;28;19913;-84
2023/11/02 02:17:09;;;;;;;;;;;;;;;;;;6296902;28;19995;-87
2023/11/02 02:20:09;;;;;;;;;;;;;;;;;;6275292;28;19920;-90
2023/11/02 02:23:11;;;;;;;;;;;;;;;;;;6309241;28;20021;-85
2023/11/02 02:26:11;;;;;;;;;;;;;;;;;;6279511;28;20406;-84
2023/11/02 02:29:12;;;;;;;;;;;;;;;;;;6280489;28;19916;-84
2023/11/02 02:32:12;;;;;;;;;;;;;;;;;;6296919;28;20440;-84
2023/11/02 02:35:12;;;;;;;;;;;;;;;;;;6296797;28;19919;-85
2023/11/02 02:38:12;;;;;;;;;;;;;;;;;;6312996;28;19912;-84
2023/11/02 02:41:12;;;;;;;;;;;;;;;;;;6294811;28;19912;-84
2023/11/02 02:44:12;;;;;;;;;;;;;;;;;;6314009;28;19908;-84
2023/11/02 02:47:12;;;;;;;;;;;;;;;;;;6297043;28;19916;-84
2023/11/02 02:50:12;;;;;;;;;;;;;;;;;;6279680;28;19917;-84
2023/11/02 02:53:13;;;;;;;;;;;;;;;;;;6303932;28;19974;-84
2023/11/02 02:56:13;;;;;;;;;;;;;;;;;;6275314;28;19908;-84
2023/11/02 02:59:13;;;;;;;;;;;;;;;;;;6285166;28;19913;-84
2023/11/02 03:02:13;;;;;;;;;;;;;;;;;;6293345;28;19965;-84
2023/11/02 03:05:14;;;;;;;;;;;;;;;;;;6290150;28;19917;-84
2023/11/02 03:08:14;;;;;;;;;;;;;;;;;;6304274;28;20377;-84
2023/11/02 03:11:15;;;;;;;;;;;;;;;;;;6296069;28;19962;-84
2023/11/02 03:14:15;;;;;;;;;;;;;;;;;;6297719;28;19908;-84
2023/11/02 03:17:15;;;;;;;;;;;;;;;;;;6302622;28;19920;-87
2023/11/02 03:20:16;;;;;;;;;;;;;;;;;;6283580;28;19917;-87
2023/11/02 03:23:16;;;;;;;;;;;;;;;;;;6279825;28;19921;-87
2023/11/02 03:26:17;;;;;;;;;;;;;;;;;;6288617;28;19948;-87
2023/11/02 03:29:17;;;;;;;;;;;;;;;;;;6272220;28;19912;-88
2023/11/02 03:32:17;;;;;;;;;;;;;;;;;;6278865;28;19917;-87
2023/11/02 03:35:17;;;;;;;;;;;;;;;;;;6272737;28;19916;-87
2023/11/02 03:38:17;;;;;;;;;;;;;;;;;;6276062;28;19912;-87
2023/11/02 03:41:17;;;;;;;;;;;;;;;;;;6296803;28;20399;-87
2023/11/02 03:44:17;;;;;;;;;;;;;;;;;;6295867;28;19920;-87
2023/11/02 03:47:17;;;;;;;;;;;;;;;;;;6271376;28;19917;-87
2023/11/02 03:50:18;;;;;;;;;;;;;;;;;;6287321;28;19913;-87
2023/11/02 03:53:18;;;;;;;;;;;;;;;;;;6272844;28;19909;-87
2023/11/02 03:56:18;;;;;;;;;;;;;;;;;;6278037;28;19913;-86
2023/11/02 03:59:18;;;;;;;;;;;;;;;;;;6293853;28;19912;-87
2023/11/02 04:02:20;;;;;;;;;;;;;;;;;;6290507;28;19912;-87
2023/11/02 04:05:20;;;;;;;;;;;;;;;;;;6272099;28;20003;-87
2023/11/02 04:08:21;;;;;;;;;;;;;;;;;;6291550;28;19916;-88
2023/11/02 04:11:22;;;;;;;;;;;;;;;;;;6275316;28;19921;-87
2023/11/02 04:14:22;;;;;;;;;;;;;;;;;;6286707;28;19917;-87
2023/11/02 04:17:22;;;;;;;;;;;;;;;;;;6304934;28;20063;-87
2023/11/02 04:20:22;;;;;;;;;;;;;;;;;;6291120;28;20417;-87
2023/11/02 04:23:23;;;;;;;;;;;;;;;;;;6306211;28;19921;-88
2023/11/02 04:26:23;;;;;;;;;;;;;;;;;;6287336;28;19912;-86
2023/11/02 04:29:23;;;;;;;;;;;;;;;;;;6282752;28;20012;-86
2023/11/02 04:32:23;;;;;;;;;;;;;;;;;;6287021;28;19917;-84
2023/11/02 04:35:23;;;;;;;;;;;;;;;;;;6277909;28;20316;-85
2023/11/02 04:38:23;;;;;;;;;;;;;;;;;;6275074;28;20562;-85
2023/11/02 04:41:23;;;;;;;;;;;;;;;;;;6291855;28;19939;-84
2023/11/02 04:44:23;;;;;;;;;;;;;;;;;;6301091;28;20393;-84
2023/11/02 04:47:23;;;;;;;;;;;;;;;;;;6297601;28;19924;-85
2023/11/02 04:50:24;;;;;;;;;;;;;;;;;;6293279;28;20105;-84
2023/11/02 04:53:24;;;;;;;;;;;;;;;;;;6293622;28;19923;-84
2023/11/02 04:56:24;;;;;;;;;;;;;;;;;;6288588;28;19913;-85
2023/11/02 04:59:24;;;;;;;;;;;;;;;;;;6300345;28;19912;-83
2023/11/02 05:02:25;;;;;;;;;;;;;;;;;;6290441;28;19913;-84
2023/11/02 05:05:25;;;;;;;;;;;;;;;;;;6297051;28;19912;-84
2023/11/02 05:08:25;;;;;;;;;;;;;;;;;;6297356;28;20010;-83
2023/11/02 05:11:25;;;;;;;;;;;;;;;;;;6283628;28;19920;-83
2023/11/02 05:14:25;;;;;;;;;;;;;;;;;;6277557;28;19919;-83
2023/11/02 05:17:25;;;;;;;;;;;;;;;;;;6278247;28;19913;-83
2023/11/02 05:20:27;;;;;;;;;;;;;;;;;;6274428;28;19917;-83
2023/11/02 05:23:27;;;;;;;;;;;;;;;;;;6302435;28;20090;-87
2023/11/02 05:26:28;;;;;;;;;;;;;;;;;;6303552;28;20292;-83
2023/11/02 05:29:28;;;;;;;;;;;;;;;;;;6274432;28;20374;-84
2023/11/02 05:32:28;;;;;;;;;;;;;;;;;;6294284;28;19967;-84
2023/11/02 05:35:28;;;;;;;;;;;;;;;;;;6281384;28;19912;-84
2023/11/02 05:38:29;;;;;;;;;;;;;;;;;;6278305;28;19976;-87
2023/11/02 05:41:29;;;;;;;;;;;;;;;;;;6285507;28;19916;-87
2023/11/02 05:44:29;;;;;;;;;;;;;;;;;;6277662;28;19913;-87
2023/11/02 05:47:30;;;;;;;;;;;;;;;;;;6280057;28;19916;-86
2023/11/02 05:50:30;;;;;;;;;;;;;;;;;;6277398;28;20365;-88
2023/11/02 05:53:30;;;;;;;;;;;;;;;;;;6283496;28;20270;-86
2023/11/02 05:56:30;;;;;;;;;;;;;;;;;;6291541;28;20015;-87
2023/11/02 05:59:31;;;;;;;;;;;;;;;;;;6280076;28;19920;-86
2023/11/02 06:02:32;;;;;;;;;;;;;;;;;;6289371;28;20297;-86
2023/11/02 06:05:32;;;;;;;;;;;;;;;;;;6287264;28;20011;-85
2023/11/02 06:08:32;;;;;;;;;;;;;;;;;;6283785;28;20274;-86
2023/11/02 06:11:33;;;;;;;;;;;;;;;;;;6277497;28;19942;-86
2023/11/02 06:14:33;;;;;;;;;;;;;;;;;;6274927;28;19913;-87
2023/11/02 06:17:33;;;;;;;;;;;;;;;;;;6277262;28;19912;-86
2023/11/02 06:20:34;;;;;;;;;;;;;;;;;;6298608;28;19939;-86
2023/11/02 06:23:34;;;;;;;;;;;;;;;;;;6272629;28;19921;-87
2023/11/02 06:26:34;;;;;;;;;;;;;;;;;;6293726;28;19916;-87
2023/11/02 06:29:36;;;;;;;;;;;;;;;;;;6277599;28;20460;-86
2023/11/02 06:32:36;;;;;;;;;;;;;;;;;;6279272;28;19912;-87
2023/11/02 06:35:37;;;;;;;;;;;;;;;;;;6304491;28;20105;-87
2023/11/02 06:38:37;;;;;;;;;;;;;;;;;;6290284;28;20003;-88
2023/11/02 06:41:37;;;;;;;;;;;;;;;;;;6275035;28;19935;-86
2023/11/02 06:44:42;;;;;;;;;;;;;;;;;;6293920;28;19936;-86
2023/11/02 06:47:43;;;;;;;;;;;;;;;;;;6287347;28;19920;-87
2023/11/02 06:50:46;;;;;;;;;;;;;;;;;;6275695;28;19982;-88
2023/11/02 06:53:46;;;;;;;;;;;;;;;;;;6294863;28;19912;-86
2023/11/02 06:56:47;;;;;;;;;;;;;;;;;;6291551;28;19956;-88
2023/11/02 06:59:47;;;;;;;;;;;;;;;;;;6293864;28;19952;-87
2023/11/02 07:02:47;;;;;;;;;;;;;;;;;;6286570;28;19913;-87
2023/11/02 07:05:47;;;;;;;;;;;;;;;;;;6289712;28;19920;-87
2023/11/02 07:08:47;;;;;;;;;;;;;;;;;;6277400;28;19923;-86
2023/11/02 07:11:47;;;;;;;;;;;;;;;;;;6276980;28;20408;-86
2023/11/02 07:14:48;;;;;;;;;;;;;;;;;;6276636;28;19920;-86
2023/11/02 07:17:48;;;;;;;;;;;;;;;;;;6280200;28;19916;-88
2023/11/02 07:20:49;;;;;;;;;;;;;;;;;;6283036;28;19919;-84
2023/11/02 07:23:49;;;;;;;;;;;;;;;;;;6273307;28;19920;-87
2023/11/02 07:26:49;;;;;;;;;;;;;;;;;;6273191;28;19925;-86
2023/11/02 07:29:49;;;;;;;;;;;;;;;;;;6302739;28;19939;-87
2023/11/02 07:32:49;;;;;;;;;;;;;;;;;;6294979;28;20299;-87
2023/11/02 07:35:49;;;;;;;;;;;;;;;;;;6287621;28;19913;-87
2023/11/02 07:38:50;;;;;;;;;;;;;;;;;;6284948;28;19916;-88
2023/11/02 07:41:50;;;;;;;;;;;;;;;;;;6270777;28;19995;-87
2023/11/02 07:44:50;;;;;;;;;;;;;;;;;;6279870;28;19917;-87
2023/11/02 07:47:50;;;;;;;;;;;;;;;;;;6273705;28;19912;-88
2023/11/02 07:50:50;;;;;;;;;;;;;;;;;;6278679;28;19924;-86
2023/11/02 07:53:51;;;;;;;;;;;;;;;;;;6299969;28;19913;-86
2023/11/02 07:56:51;;;;;;;;;;;;;;;;;;6294201;28;19928;-87
2023/11/02 07:59:52;;;;;;;;;;;;;;;;;;6278989;28;19945;-90
2023/11/02 08:02:52;;;;;;;;;;;;;;;;;;6281144;28;19917;-88
2023/11/02 08:05:52;;;;;;;;;;;;;;;;;;6282754;28;19912;-87
2023/11/02 08:08:52;;;;;;;;;;;;;;;;;;6283102;28;19956;-87
2023/11/02 08:11:53;;;;;;;;;;;;;;;;;;6290689;28;20019;-88
2023/11/02 08:14:53;;;;;;;;;;;;;;;;;;6287565;28;19930;-87
2023/11/02 08:17:53;;;;;;;;;;;;;;;;;;6292786;28;20015;-87
2023/11/02 08:20:53;;;;;;;;;;;;;;;;;;6299736;28;19995;-87
2023/11/02 08:23:53;;;;;;;;;;;;;;;;;;6285647;28;20365;-88
2023/11/02 08:26:53;;;;;;;;;;;;;;;;;;6304955;28;19932;-87
2023/11/02 08:29:54;;;;;;;;;;;;;;;;;;6283130;28;21381;-91
2023/11/02 08:32:54;;;;;;;;;;;;;;;;;;6293923;28;19927;-88
2023/11/02 08:35:54;;;;;;;;;;;;;;;;;;6286897;28;19917;-87
2023/11/02 08:38:55;;;;;;;;;;;;;;;;;;6289813;28;20000;-87
2023/11/02 08:41:55;;;;;;;;;;;;;;;;;;6310798;28;19912;-87
2023/11/02 08:44:55;;;;;;;;;;;;;;;;;;6287602;28;20019;-85
2023/11/02 08:47:55;;;;;;;;;;;;;;;;;;6277233;28;19916;-86
2023/11/02 08:50:55;;;;;;;;;;;;;;;;;;6276140;28;19917;-86
2023/11/02 08:53:55;;;;;;;;;;;;;;;;;;6276909;28;19916;-81
2023/11/02 08:56:55;;;;;;;;;;;;;;;;;;6285200;28;19913;-80
2023/11/02 08:59:56;;;;;;;;;;;;;;;;;;6275340;28;19927;-82
2023/11/02 09:02:56;;;;;;;;;;;;;;;;;;6291374;28;19912;-87
2023/11/02 09:05:56;;;;;;;;;;;;;;;;;;6310017;28;19944;-87
2023/11/02 09:08:56;;;;;;;;;;;;;;;;;;6301576;28;19966;-89
2023/11/02 09:11:57;;;;;;;;;;;;;;;;;;6289285;28;20301;-88
2023/11/02 09:14:57;;;;;;;;;;;;;;;;;;6291930;28;19913;-89
2023/11/02 09:17:57;;;;;;;;;;;;;;;;;;6317995;28;19923;-89
2023/11/02 09:20:57;;;;;;;;;;;;;;;;;;6283909;28;19931;-89
2023/11/02 09:23:58;;;;;;;;;;;;;;;;;;6294683;28;19920;-89
2023/11/02 09:26:58;;;;;;;;;;;;;;;;;;6281368;28;19916;-89
2023/11/02 09:29:58;;;;;;;;;;;;;;;;;;6298688;28;19924;-89
2023/11/02 09:32:59;;;;;;;;;;;;;;;;;;6286500;28;19928;-89
2023/11/02 09:36:00;;;;;;;;;;;;;;;;;;6302658;28;19917;-90
2023/11/02 09:39:03;;;;;;;;;;;;;;;;;;6292552;28;20003;-90
2023/11/02 09:42:04;;;;;;;;;;;;;;;;;;6306460;28;19917;-90
2023/11/02 09:45:04;;;;;;;;;;;;;;;;;;6308500;28;19912;-90
2023/11/02 09:48:04;;;;;;;;;;;;;;;;;;6299089;28;19967;-87
2023/11/02 09:51:04;;;;;;;;;;;;;;;;;;6286608;28;19924;-84
2023/11/02 09:54:05;;;;;;;;;;;;;;;;;;6284115;28;19919;-84
2023/11/02 09:57:06;;;;;;;;;;;;;;;;;;6276241;28;19919;-88
2023/11/02 10:00:08;;;;;;;;;;;;;;;;;;6279390;28;19913;-87
2023/11/02 10:03:08;;;;;;;;;;;;;;;;;;6279777;28;19943;-90
2023/11/02 10:06:08;;;;;;;;;;;;;;;;;;6280243;28;19913;-90
2023/11/02 10:09:08;;;;;;;;;;;;;;;;;;6275189;28;19917;-82
2023/11/02 10:12:09;;;;;;;;;;;;;;;;;;6274514;28;20004;-79
2023/11/02 10:15:11;;;;;;;;;;;;;;;;;;6286153;28;20491;-81
2023/11/02 10:18:11;;;;;;;;;;;;;;;;;;6267734;28;20019;-82
2023/11/02 10:21:11;;;;;;;;;;;;;;;;;;6279471;28;19917;-80
2023/11/02 10:24:11;;;;;;;;;;;;;;;;;;6293689;28;20388;-81
2023/11/02 10:27:11;;;;;;;;;;;;;;;;;;6275269;28;19917;-82
2023/11/02 10:30:12;;;;;;;;;;;;;;;;;;6276768;28;20368;-81
2023/11/02 10:33:12;;;;;;;;;;;;;;;;;;6287380;28;20431;-82
2023/11/02 10:36:12;;;;;;;;;;;;;;;;;;6270995;28;20323;-82
2023/11/02 10:39:12;;;;;;;;;;;;;;;;;;6288924;28;19927;-81
2023/11/02 10:42:12;;;;;;;;;;;;;;;;;;6273729;28;19913;-81
2023/11/02 10:45:13;;;;;;;;;;;;;;;;;;6276686;28;19917;-83
2023/11/02 10:48:13;;;;;;;;;;;;;;;;;;6293787;28;19920;-81
2023/11/02 10:51:13;;;;;;;;;;;;;;;;;;6272916;28;19967;-82
2023/11/02 10:54:13;;;;;;;;;;;;;;;;;;6274166;28;20000;-82
2023/11/02 10:57:14;;;;;;;;;;;;;;;;;;6271064;28;19947;-81
2023/11/02 11:00:14;;;;;;;;;;;;;;;;;;5921975;28;10000191;-83
2023/11/02 11:03:14;;;;;;;;;;;;;;;;;;6269180;28;19917;-82
2023/11/02 11:06:14;;;;;;;;;;;;;;;;;;6273997;28;19912;-81
2023/11/02 11:09:15;;;;;;;;;;;;;;;;;;6272921;28;20350;-82
2023/11/02 11:12:17;;;;;;;;;;;;;;;;;;6267077;28;19924;-82
2023/11/02 11:15:19;;;;;;;;;;;;;;;;;;6268709;28;19912;-82
2023/11/02 11:18:19;;;;;;;;;;;;;;;;;;6274765;28;19920;-83
2023/11/02 11:21:19;;;;;;;;;;;;;;;;;;6272469;28;20000;-83
2023/11/02 11:24:22;;;;;;;;;;;;;;;;;;6267442;28;19928;-81
2023/11/02 11:27:22;;;;;;;;;;;;;;;;;;6273726;28;19921;-78
2023/11/02 11:30:22;;;;;;;;;;;;;;;;;;6278298;28;20546;-79
2023/11/02 11:33:22;;;;;;;;;;;;;;;;;;6291775;28;20387;-79
2023/11/02 11:36:22;;;;;;;;;;;;;;;;;;6274234;28;19963;-78
2023/11/02 11:39:22;;;;;;;;;;;;;;;;;;6274872;28;19916;-78
2023/11/02 11:42:22;;;;;;;;;;;;;;;;;;6274645;28;19920;-78
2023/11/02 11:45:22;;;;;;;;;;;;;;;;;;6279302;28;20686;-80
2023/11/02 11:48:24;;;;;;;;;;;;;;;;;;6275779;28;20411;-79
2023/11/02 11:51:24;;;;;;;;;;;;;;;;;;6276934;28;20052;-81
2023/11/02 11:54:24;;;;;;;;;;;;;;;;;;6275558;28;19917;-79
2023/11/02 11:57:24;;;;;;;;;;;;;;;;;;6279587;28;19917;-78
2023/11/02 12:00:24;;;;;;;;;;;;;;;;;;6274558;28;19924;-80
2023/11/02 12:03:25;;;;;;;;;;;;;;;;;;6275630;28;20237;-78
2023/11/02 12:06:25;;;;;;;;;;;;;;;;;;6273525;28;19986;-81
2023/11/02 12:09:25;;;;;;;;;;;;;;;;;;6282478;28;20011;-80
2023/11/02 12:12:25;;;;;;;;;;;;;;;;;;6282411;28;20265;-78
2023/11/02 12:15:25;;;;;;;;;;;;;;;;;;6274319;28;20330;-78
2023/11/02 12:18:27;;;;;;;;;;;;;;;;;;6274939;28;20446;-82
2023/11/02 12:21:27;;;;;;;;;;;;;;;;;;6273032;28;20011;-79
2023/11/02 12:24:27;;;;;;;;;;;;;;;;;;6277586;28;20463;-79
2023/11/02 12:27:27;;;;;;;;;;;;;;;;;;6278677;28;19916;-78
2023/11/02 12:30:28;;;;;;;;;;;;;;;;;;6279022;28;19917;-78
2023/11/02 12:33:28;;;;;;;;;;;;;;;;;;6275525;28;19966;-81
2023/11/02 12:36:28;;;;;;;;;;;;;;;;;;6278220;28;19978;-78
2023/11/02 12:39:28;;;;;;;;;;;;;;;;;;6275856;28;19999;-81
2023/11/02 12:42:28;;;;;;;;;;;;;;;;;;6267278;28;19908;-81
2023/11/02 12:45:28;;;;;;;;;;;;;;;;;;6273840;28;19913;-81
2023/11/02 12:48:29;;;;;;;;;;;;;;;;;;6273309;28;19949;-80
2023/11/02 12:51:30;;;;;;;;;;;;;;;;;;6273248;28;19924;-81
2023/11/02 12:54:31;;;;;;;;;;;;;;;;;;6272485;28;20023;-81
2023/11/02 12:57:32;;;;;;;;;;;;;;;;;;6288246;28;20374;-81
2023/11/02 13:00:33;;;;;;;;;;;;;;;;;;6289097;28;19916;-81
2023/11/02 13:03:33;;;;;;;;;;;;;;;;;;6275755;28;19919;-81
2023/11/02 13:06:35;;;;;;;;;;;;;;;;;;6270490;28;19936;-81
2023/11/02 13:09:35;;;;;;;;;;;;;;;;;;6270859;28;19965;-82
2023/11/02 13:12:36;;;;;;;;;;;;;;;;;;6273406;28;19932;-82
2023/11/02 13:15:36;;;;;;;;;;;;;;;;;;6286972;28;19921;-81
2023/11/02 13:18:36;;;;;;;;;;;;;;;;;;6271165;28;19917;-82
2023/11/02 13:21:36;;;;;;;;;;;;;;;;;;6268640;28;19929;-81
2023/11/02 13:24:36;;;;;;;;;;;;;;;;;;6269612;28;19931;-82
2023/11/02 13:27:36;;;;;;;;;;;;;;;;;;6279456;28;19920;-82
2023/11/02 13:30:38;;;;;;;;;;;;;;;;;;6277168;28;19925;-80
2023/11/02 13:33:38;;;;;;;;;;;;;;;;;;6269346;28;20439;-80
2023/11/02 13:36:39;;;;;;;;;;;;;;;;;;6268611;28;19948;-80
2023/11/02 13:39:40;;;;;;;;;;;;;;;;;;6268592;28;20928;-81
2023/11/02 13:42:45;;;;;;;;;;;;;;;;;;6268511;28;20018;-81
2023/11/02 13:45:45;;;;;;;;;;;;;;;;;;6278234;28;19974;-80
2023/11/02 13:48:48;;;;;;;;;;;;;;;;;;6272260;28;20020;-79
2023/11/02 13:51:48;;;;;;;;;;;;;;;;;;6278811;28;19978;-78
2023/11/02 13:54:48;;;;;;;;;;;;;;;;;;6271695;28;19920;-78
2023/11/02 13:57:48;;;;;;;;;;;;;;;;;;6267998;28;19924;-79
2023/11/02 14:00:50;;;;;;;;;;;;;;;;;;6264381;28;19916;-80
2023/11/02 14:03:52;;;;;;;;;;;;;;;;;;6275149;28;19924;-79
2023/11/02 14:06:52;;;;;;;;;;;;;;;;;;6265345;28;20024;-79
2023/11/02 14:09:53;;;;;;;;;;;;;;;;;;6269959;28;19935;-79
2023/11/02 14:12:53;;;;;;;;;;;;;;;;;;6275276;28;20043;-78
2023/11/02 14:15:53;;;;;;;;;;;;;;;;;;6270618;28;19917;-79
2023/11/02 14:18:53;;;;;;;;;;;;;;;;;;6273181;28;19925;-80
2023/11/02 14:21:54;;;;;;;;;;;;;;;;;;6268773;28;19979;-79
2023/11/02 14:24:55;;;;;;;;;;;;;;;;;;6265694;28;20357;-79
2023/11/02 14:27:55;;;;;;;;;;;;;;;;;;6267950;28;19927;-80
2023/11/02 14:30:56;;;;;;;;;;;;;;;;;;6271635;28;19920;-80
2023/11/02 14:33:56;;;;;;;;;;;;;;;;;;6284239;28;19916;-79
2023/11/02 14:36:57;;;;;;;;;;;;;;;;;;6283764;28;20376;-81
2023/11/02 14:39:58;;;;;;;;;;;;;;;;;;6265551;28;19917;-79
2023/11/02 14:43:00;;;;;;;;;;;;;;;;;;6270102;28;20011;-79
2023/11/02 14:46:00;;;;;;;;;;;;;;;;;;6270782;28;20332;-79
2023/11/02 14:49:00;;;;;;;;;;;;;;;;;;6272720;28;19948;-80
2023/11/02 14:52:06;;;;;;;;;;;;;;;;;;6267524;28;19921;-79
2023/11/02 14:55:06;;;;;;;;;;;;;;;;;;6270391;28;19931;-79
2023/11/02 14:58:06;;;;;;;;;;;;;;;;;;6267415;28;20492;-81
2023/11/02 15:01:06;;;;;;;;;;;;;;;;;;6271428;28;19923;-81
2023/11/02 15:04:07;;;;;;;;;;;;;;;;;;6272117;28;19916;-81
2023/11/02 15:07:09;;;;;;;;;;;;;;;;;;6276956;28;19920;-81
2023/11/02 15:10:09;;;;;;;;;;;;;;;;;;6267180;28;20369;-80
2023/11/02 15:13:09;;;;;;;;;;;;;;;;;;6272150;28;19922;-80
2023/11/02 15:16:11;;;;;;;;;;;;;;;;;;6271471;28;19917;-80
2023/11/02 15:19:11;;;;;;;;;;;;;;;;;;6266904;28;19927;-78
2023/11/02 15:22:11;;;;;;;;;;;;;;;;;;6268072;28;19924;-80
2023/11/02 15:25:11;;;;;;;;;;;;;;;;;;6266916;28;19952;-81
2023/11/02 15:28:12;;;;;;;;;;;;;;;;;;6265967;28;19921;-81
2023/11/02 15:31:12;;;;;;;;;;;;;;;;;;6276204;28;19925;-80
2023/11/02 15:34:12;;;;;;;;;;;;;;;;;;6272700;28;19916;-81
2023/11/02 15:37:15;;;;;;;;;;;;;;;;;;6263396;28;19920;-81
2023/11/02 15:40:15;;;;;;;;;;;;;;;;;;6264093;28;19921;-81
2023/11/02 15:43:16;;;;;;;;;;;;;;;;;;6266524;28;20387;-81
2023/11/02 15:46:16;;;;;;;;;;;;;;;;;;6270327;28;19924;-81
2023/11/02 15:49:16;;;;;;;;;;;;;;;;;;6270869;28;19963;-80
2023/11/02 15:52:16;;;;;;;;;;;;;;;;;;6266516;28;19951;-80
2023/11/02 15:55:16;;;;;;;;;;;;;;;;;;6266797;28;19995;-81
2023/11/02 15:58:17;;;;;;;;;;;;;;;;;;6266725;28;20388;-81
2023/11/02 16:01:17;;;;;;;;;;;;;;;;;;6281299;28;20416;-80
2023/11/02 16:04:18;;;;;;;;;;;;;;;;;;6293273;28;19963;-80
2023/11/02 16:07:18;;;;;;;;;;;;;;;;;;6296167;28;19924;-81
2023/11/02 16:10:20;;;;;;;;;;;;;;;;;;6293909;28;20011;-81
2023/11/02 16:13:20;;;;;;;;;;;;;;;;;;6312918;28;19912;-81
2023/11/02 16:16:20;;;;;;;;;;;;;;;;;;6292568;28;19913;-81
2023/11/02 16:19:20;;;;;;;;;;;;;;;;;;6294069;28;19920;-81
2023/11/02 16:22:22;;;;;;;;;;;;;;;;;;6301736;28;20023;-81
2023/11/02 16:25:22;;;;;;;;;;;;;;;;;;6300495;28;19932;-81
2023/11/02 16:28:22;;;;;;;;;;;;;;;;;;6299920;28;19921;-80
2023/11/02 16:31:23;;;;;;;;;;;;;;;;;;6314821;28;20336;-81
2023/11/02 16:34:26;;;;;;;;;;;;;;;;;;6300268;28;19916;-81
2023/11/02 16:37:26;;;;;;;;;;;;;;;;;;6298310;28;19912;-81
2023/11/02 16:40:26;;;;;;;;;;;;;;;;;;6280841;28;19916;-80
2023/11/02 16:43:26;;;;;;;;;;;;;;;;;;6276010;28;19978;-81
2023/11/02 16:46:26;;;;;;;;;;;;;;;;;;6293911;28;19912;-81
2023/11/02 16:49:27;;;;;;;;;;;;;;;;;;6299338;28;19917;-81
2023/11/02 16:52:29;;;;;;;;;;;;;;;;;;6300465;28;20003;-81
2023/11/02 16:55:29;;;;;;;;;;;;;;;;;;6298084;28;20025;-80
2023/11/02 16:58:31;;;;;;;;;;;;;;;;;;6300439;28;20385;-81
2023/11/02 17:01:31;;;;;;;;;;;;;;;;;;6299281;28;20353;-81
2023/11/02 17:04:32;;;;;;;;;;;;;;;;;;6299134;28;19915;-80
2023/11/02 17:07:33;;;;;;;;;;;;;;;;;;6299522;28;19912;-81
2023/11/02 17:10:34;;;;;;;;;;;;;;;;;;6307092;28;19966;-81
2023/11/02 17:13:35;;;;;;;;;;;;;;;;;;6299874;28;19909;-81
2023/11/02 17:16:35;;;;;;;;;;;;;;;;;;6308184;28;20306;-81
2023/11/02 17:19:35;;;;;;;;;;;;;;;;;;6305379;28;19940;-81
2023/11/02 17:22:35;;;;;;;;;;;;;;;;;;6313112;28;19920;-81
2023/11/02 17:25:36;;;;;;;;;;;;;;;;;;6314699;28;19908;-81
2023/11/02 17:28:37;;;;;;;;;;;;;;;;;;6299592;28;20241;-80
2023/11/02 17:31:37;;;;;;;;;;;;;;;;;;6299756;28;19913;-81
2023/11/02 17:34:37;;;;;;;;;;;;;;;;;;6298532;28;19909;-81
2023/11/02 17:37:38;;;;;;;;;;;;;;;;;;6289147;28;19908;-81
2023/11/02 17:40:38;;;;;;;;;;;;;;;;;;6282271;28;19919;-81
2023/11/02 17:43:41;;;;;;;;;;;;;;;;;;6299346;28;19909;-81
2023/11/02 17:46:41;;;;;;;;;;;;;;;;;;6299633;28;19908;-81
2023/11/02 17:49:41;;;;;;;;;;;;;;;;;;6295475;28;19931;-81
2023/11/02 17:52:44;;;;;;;;;;;;;;;;;;6288249;28;19917;-80
2023/11/02 17:55:45;;;;;;;;;;;;;;;;;;6297019;28;20059;-80
2023/11/02 17:58:45;;;;;;;;;;;;;;;;;;6281686;28;19909;-81
2023/11/02 18:01:45;;;;;;;;;;;;;;;;;;6298900;28;20465;-81
2023/11/02 18:04:45;;;;;;;;;;;;;;;;;;6297516;28;19916;-81
2023/11/02 18:07:45;;;;;;;;;;;;;;;;;;6296703;28;19916;-81
2023/11/02 18:10:45;;;;;;;;;;;;;;;;;;6296601;28;19923;-81
2023/11/02 18:13:46;;;;;;;;;;;;;;;;;;6312598;28;19912;-80
2023/11/02 18:16:46;;;;;;;;;;;;;;;;;;6323747;28;20030;-81
2023/11/02 18:19:47;;;;;;;;;;;;;;;;;;6302862;28;19919;-80
2023/11/02 18:22:47;;;;;;;;;;;;;;;;;;6297338;28;19990;-81
2023/11/02 18:25:47;;;;;;;;;;;;;;;;;;6297689;28;20349;-80
2023/11/02 18:28:47;;;;;;;;;;;;;;;;;;6277454;28;19913;-78
2023/11/02 18:31:47;;;;;;;;;;;;;;;;;;6298249;28;19912;-78
2023/11/02 18:34:47;;;;;;;;;;;;;;;;;;6296660;28;19908;-77
2023/11/02 18:37:49;;;;;;;;;;;;;;;;;;6297318;28;20284;-79
2023/11/02 18:40:50;;;;;;;;;;;;;;;;;;6274189;28;19962;-77
2023/11/02 18:43:50;;;;;;;;;;;;;;;;;;6277955;28;20349;-77
2023/11/02 18:46:50;;;;;;;;;;;;;;;;;;6296357;28;20243;-77
2023/11/02 18:49:50;;;;;;;;;;;;;;;;;;6296186;28;19913;-78
2023/11/02 18:52:50;;;;;;;;;;;;;;;;;;6297167;28;19913;-78
2023/11/02 18:55:50;;;;;;;;;;;;;;;;;;6297353;28;19909;-77
2023/11/02 18:58:50;;;;;;;;;;;;;;;;;;6297678;28;19955;-78
2023/11/02 19:01:53;;;;;;;;;;;;;;;;;;6296615;28;19908;-78
2023/11/02 19:04:54;;;;;;;;;;;;;;;;;;6276983;28;19952;-78
2023/11/02 19:07:54;;;;;;;;;;;;;;;;;;6297262;28;20314;-78
2023/11/02 19:10:59;;;;;;;;;;;;;;;;;;6321484;28;19927;-78
2023/11/02 19:13:59;;;;;;;;;;;;;;;;;;6308152;28;19912;-77
2023/11/02 19:16:59;;;;;;;;;;;;;;;;;;6296784;28;19917;-78
2023/11/02 19:20:00;;;;;;;;;;;;;;;;;;6274457;28;20004;-78
2023/11/02 19:23:01;;;;;;;;;;;;;;;;;;6271494;28;19928;-78
2023/11/02 19:26:01;;;;;;;;;;;;;;;;;;6276451;28;20380;-78
2023/11/02 19:29:01;;;;;;;;;;;;;;;;;;6297115;28;19963;-77
2023/11/02 19:32:02;;;;;;;;;;;;;;;;;;6295760;28;20007;-78
2023/11/02 19:35:04;;;;;;;;;;;;;;;;;;6295333;28;19912;-78
2023/11/02 19:38:05;;;;;;;;;;;;;;;;;;6284143;28;20003;-83
2023/11/02 19:41:05;;;;;;;;;;;;;;;;;;6292724;28;19912;-83
2023/11/02 19:44:05;;;;;;;;;;;;;;;;;;6295882;28;20041;-82
2023/11/02 19:47:05;;;;;;;;;;;;;;;;;;6293283;28;19999;-82
2023/11/02 19:50:06;;;;;;;;;;;;;;;;;;6294851;28;19921;-83
2023/11/02 19:53:07;;;;;;;;;;;;;;;;;;6300424;28;19934;-84
2023/11/02 19:56:07;;;;;;;;;;;;;;;;;;6299919;28;19943;-81
2023/11/02 19:59:07;;;;;;;;;;;;;;;;;;6302427;28;20327;-82
2023/11/02 20:02:07;;;;;;;;;;;;;;;;;;6297422;28;19916;-82
2023/11/02 20:05:07;;;;;;;;;;;;;;;;;;6303539;28;19912;-82
2023/11/02 20:08:08;;;;;;;;;;;;;;;;;;6315299;28;19923;-82
2023/11/02 20:11:08;;;;;;;;;;;;;;;;;;6299474;28;19920;-82
2023/11/02 20:14:09;;;;;;;;;;;;;;;;;;6279433;28;19966;-82
2023/11/02 20:17:09;;;;;;;;;;;;;;;;;;6301872;28;19917;-81
2023/11/02 20:20:09;;;;;;;;;;;;;;;;;;6277859;28;19936;-81
2023/11/02 20:23:09;;;;;;;;;;;;;;;;;;6294726;28;19924;-82
2023/11/02 20:26:13;;;;;;;;;;;;;;;;;;6297092;28;19913;-82
2023/11/02 20:29:13;;;;;;;;;;;;;;;;;;6283674;28;20452;-82
2023/11/02 20:32:13;;;;;;;;;;;;;;;;;;6292873;28;19920;-82